XSE weather

Sebba Airport
Sebba, Seno, Burkina Faso

Public forecast

Using degrees Celsius for public forecast. Weather courtesy of forecast.io.

METAR (pilot weather report)

Report is more than 6 hours old.

Closest report is Dori Airport, 47.5 nm (87.9 km) NW. Retrieved 2009/09/21 17:00 UTC (10 years ago):

DFEE 211700Z 14002KT 9/9 FEW020 BKN260 34/21

TAF (pilot weather forecast)

Forecast is more than 12 hours old.

Closest forecast is Diori Hamani International Airport, 97.3 nm (180.3 km) E. Retrieved 2019/03/20 00:20 UTC (1 day ago):

TAF DRRN 202300Z 2100/2206 36006KT 5000 DU NSC PROB40 2106/2110 3500 BECMG 2114/2116 6000 NSW PROB40 2117/2120 4000 HZ